Terminal Aerodrome Forecast
Issued by NWS Detroit/Pontiac, MI

Home | Current Version | Previous Version | Text Only | Print | Product List | Glossary On
Versions: 1 2 3 4 5 6 7 8 9 10 11 12 13 14 15 16 17 18 19 20 21 22 23 24 25
000
FTUS43 KDTX 300800 AAA
TAFDTW
TAF AMD
KDTW 300854Z 3009/3112 19005KT P6SM SCT060 BKN150
     FM301200 19010KT P6SM SCT060 BKN150
     FM301900 20013G22KT 5SM -SHRA OVC040 PROB30 3021/3024 5SM -TSRA
      OVC025CB
     FM310300 21012KT P6SM -SHRA OVC030
     FM310900 23007KT 4SM BR OVC015=

USA.gov is the U.S. government's official web portal to all federal, state and local government web resources and services.